createdAt,value
2017-06-27T00:00:56.086Z,5.30
2017-06-27T00:03:23.499Z,4.13
2017-06-27T00:05:50.903Z,5.47
2017-06-27T00:08:18.287Z,4.20
2017-06-27T00:10:45.703Z,4.70
2017-06-27T00:13:13.130Z,4.93
2017-06-27T00:15:40.516Z,4.57
2017-06-27T00:18:07.921Z,4.33
2017-06-27T00:20:35.333Z,4.40
2017-06-27T00:23:02.839Z,4.17
2017-06-27T00:25:30.263Z,5.30
2017-06-27T00:27:57.680Z,4.83
2017-06-27T00:30:25.063Z,4.67
2017-06-27T00:32:52.474Z,5.00
2017-06-27T00:35:20.138Z,5.00
2017-06-27T00:37:47.542Z,4.50
2017-06-27T00:40:14.970Z,4.60
2017-06-27T00:42:42.367Z,4.03
2017-06-27T00:45:09.783Z,5.10
2017-06-27T00:47:37.200Z,4.70
2017-06-27T00:50:04.647Z,5.10
2017-06-27T00:52:32.070Z,4.43
2017-06-27T00:54:59.448Z,4.30
2017-06-27T00:57:26.860Z,3.90
2017-06-27T00:59:54.260Z,4.63
2017-06-27T01:02:21.709Z,4.20
2017-06-27T01:04:49.087Z,4.63
2017-06-27T01:07:16.475Z,4.17
2017-06-27T01:09:43.888Z,4.67
2017-06-27T01:12:11.308Z,4.10
2017-06-27T01:14:38.687Z,4.63
2017-06-27T01:17:06.096Z,4.13
2017-06-27T01:19:33.500Z,4.77
2017-06-27T01:22:01.062Z,4.83
2017-06-27T01:24:28.451Z,4.57
2017-06-27T01:26:55.840Z,4.70
2017-06-27T01:29:23.279Z,4.27
2017-06-27T01:31:50.687Z,4.50
2017-06-27T01:34:18.117Z,4.10
2017-06-27T01:36:45.601Z,4.50
2017-06-27T01:39:12.990Z,4.10
2017-06-27T01:41:40.378Z,3.90
2017-06-27T01:44:07.761Z,4.43
2017-06-27T01:46:35.186Z,4.73
2017-06-27T01:49:02.594Z,5.30
2017-06-27T01:51:29.995Z,4.00
2017-06-27T01:53:57.414Z,4.57
2017-06-27T01:56:24.961Z,4.50
2017-06-27T01:58:52.357Z,4.33
2017-06-27T02:01:19.780Z,4.47
2017-06-27T02:03:47.160Z,4.33
2017-06-27T02:06:14.559Z,4.00
2017-06-27T02:08:41.967Z,4.10
2017-06-27T02:11:09.348Z,4.10
2017-06-27T02:13:36.752Z,4.53
2017-06-27T02:16:04.178Z,4.67
2017-06-27T02:18:31.613Z,3.90
2017-06-27T02:20:58.995Z,3.73
2017-06-27T02:23:26.425Z,4.53
2017-06-27T02:25:53.815Z,4.40
2017-06-27T02:28:21.208Z,3.60
2017-06-27T02:30:48.619Z,4.00
2017-06-27T02:33:16.002Z,3.90
2017-06-27T02:35:43.447Z,4.00
2017-06-27T02:38:10.852Z,4.40
2017-06-27T02:40:38.237Z,3.40
2017-06-27T02:43:05.624Z,3.63
2017-06-27T02:45:33.028Z,3.83
2017-06-27T02:48:00.415Z,4.00
2017-06-27T02:50:27.810Z,4.20
2017-06-27T02:52:55.207Z,5.40
2017-06-27T02:55:22.728Z,9.20
2017-06-27T02:57:50.125Z,9.13
2017-06-27T03:00:17.629Z,9.73
2017-06-27T03:02:45.023Z,9.23
2017-06-27T03:05:12.464Z,9.27
2017-06-27T03:07:39.859Z,8.00
2017-06-27T03:10:07.331Z,8.17
2017-06-27T03:12:34.721Z,8.07
2017-06-27T03:15:02.174Z,7.90
2017-06-27T03:17:29.578Z,7.20
2017-06-27T03:19:56.979Z,7.63
2017-06-27T03:22:24.397Z,7.13
2017-06-27T03:24:51.849Z,8.60
2017-06-27T03:27:19.249Z,6.83
2017-06-27T03:29:46.647Z,6.60
2017-06-27T03:32:14.065Z,7.10
2017-06-27T03:34:41.486Z,7.83
2017-06-27T03:37:08.900Z,6.97
2017-06-27T03:39:36.284Z,6.63
2017-06-27T03:42:03.679Z,7.33
2017-06-27T03:44:31.075Z,7.40
2017-06-27T03:46:58.560Z,6.50
2017-06-27T03:49:25.952Z,6.67
2017-06-27T03:51:53.351Z,6.43
2017-06-27T03:54:20.763Z,6.20
2017-06-27T03:56:48.159Z,6.17
2017-06-27T03:59:15.561Z,5.73
2017-06-27T04:01:42.971Z,7.33
2017-06-27T04:04:10.376Z,6.57
2017-06-27T04:06:37.800Z,5.70
2017-06-27T04:09:05.188Z,6.50
2017-06-27T04:11:32.573Z,7.00
2017-06-27T04:13:59.993Z,6.37
2017-06-27T04:16:27.423Z,7.60
2017-06-27T04:18:54.821Z,7.73
2017-06-27T04:21:22.260Z,7.03
2017-06-27T04:23:49.649Z,6.50
2017-06-27T04:26:17.058Z,6.97
2017-06-27T04:28:44.462Z,7.60
2017-06-27T04:31:11.860Z,7.97
2017-06-27T04:33:39.273Z,8.03
2017-06-27T04:36:07.560Z,9.40
2017-06-27T04:38:34.945Z,7.50
2017-06-27T04:41:02.351Z,6.50
2017-06-27T04:43:29.744Z,6.13
2017-06-27T04:45:57.150Z,6.40
2017-06-27T04:48:25.471Z,7.30
2017-06-27T04:50:52.885Z,6.90
2017-06-27T04:53:20.329Z,6.00
2017-06-27T04:55:49.193Z,5.13
2017-06-27T04:58:18.152Z,5.10
2017-06-27T05:00:47.188Z,5.70
2017-06-27T05:03:15.925Z,6.00
2017-06-27T05:05:43.564Z,5.13
2017-06-27T05:08:11.171Z,4.90
2017-06-27T05:10:38.789Z,5.53
2017-06-27T05:13:06.482Z,4.83
2017-06-27T05:16:14.424Z,4.80
2017-06-27T05:18:43.159Z,4.87
2017-06-27T05:21:11.950Z,5.50
2017-06-27T05:23:39.649Z,5.60
2017-06-27T05:26:07.037Z,5.33
2017-06-27T05:28:34.435Z,4.70
2017-06-27T05:31:01.831Z,5.40
2017-06-27T05:33:29.240Z,4.87
2017-06-27T05:35:57.340Z,4.60
2017-06-27T05:38:24.986Z,4.43
2017-06-27T05:40:52.436Z,4.70
2017-06-27T05:43:19.860Z,5.20
2017-06-27T05:45:47.262Z,5.00
2017-06-27T05:48:14.664Z,5.23
2017-06-27T05:50:42.060Z,4.80
2017-06-27T05:53:09.456Z,5.17
2017-06-27T05:55:36.852Z,4.70
2017-06-27T05:58:04.241Z,4.23
2017-06-27T06:00:31.645Z,4.43
2017-06-27T06:02:59.083Z,4.37
2017-06-27T06:05:26.463Z,4.43
2017-06-27T06:07:53.856Z,4.57
2017-06-27T06:10:21.343Z,4.40
2017-06-27T06:12:48.746Z,4.53
2017-06-27T06:15:16.197Z,4.83
2017-06-27T06:17:43.594Z,4.20
2017-06-27T06:20:11.030Z,8.20
2017-06-27T06:22:38.428Z,4.23
2017-06-27T06:25:05.944Z,4.73
2017-06-27T06:27:33.324Z,4.33
2017-06-27T06:30:00.717Z,4.20
2017-06-27T06:32:28.121Z,4.77
2017-06-27T06:34:55.555Z,5.33
2017-06-27T06:37:22.927Z,4.47
2017-06-27T06:39:50.336Z,5.40
2017-06-27T06:42:17.733Z,5.20
2017-06-27T06:44:45.163Z,5.07
2017-06-27T06:47:12.552Z,4.83
2017-06-27T06:49:40.024Z,5.60
2017-06-27T06:52:07.553Z,5.90
2017-06-27T06:54:34.933Z,4.87
2017-06-27T06:57:02.342Z,5.10
2017-06-27T06:59:29.742Z,4.77
2017-06-27T07:01:57.136Z,5.00
2017-06-27T07:04:24.520Z,4.70
2017-06-27T07:06:51.963Z,4.80
2017-06-27T07:09:19.380Z,4.40
2017-06-27T07:11:46.799Z,4.77
2017-06-27T07:14:14.201Z,4.37
2017-06-27T07:16:41.597Z,4.83
2017-06-27T07:19:08.993Z,4.37
2017-06-27T07:21:36.384Z,3.90
2017-06-27T07:24:03.775Z,4.10
2017-06-27T07:26:31.163Z,4.17
2017-06-27T07:28:58.572Z,4.30
2017-06-27T07:31:25.977Z,4.17
2017-06-27T07:33:53.389Z,4.20
2017-06-27T07:36:20.759Z,4.93
2017-06-27T07:38:48.179Z,4.00
2017-06-27T07:41:15.560Z,4.37
2017-06-27T07:43:42.956Z,4.40
2017-06-27T07:46:10.360Z,3.80
2017-06-27T07:48:37.759Z,4.10
2017-06-27T07:51:06.523Z,3.97
2017-06-27T07:53:34.372Z,3.97
2017-06-27T07:56:01.744Z,4.60
2017-06-27T07:58:29.160Z,4.30
2017-06-27T08:00:56.584Z,3.93
2017-06-27T08:03:23.960Z,4.17
2017-06-27T08:05:51.367Z,3.80
2017-06-27T08:08:18.775Z,3.93
2017-06-27T08:10:46.157Z,3.87
2017-06-27T08:13:13.553Z,3.60
2017-06-27T08:15:40.961Z,3.83
2017-06-27T08:18:09.250Z,3.80
2017-06-27T08:20:36.615Z,4.03
2017-06-27T08:23:04.015Z,3.83
2017-06-27T08:25:31.424Z,3.77
2017-06-27T08:27:58.806Z,3.80
2017-06-27T08:30:26.233Z,3.80
2017-06-27T08:32:53.636Z,3.80
2017-06-27T08:35:21.068Z,5.83
2017-06-27T08:37:48.557Z,3.90
2017-06-27T08:40:16.022Z,3.90
2017-06-27T08:42:43.396Z,3.73
2017-06-27T08:45:10.843Z,3.60
2017-06-27T08:47:38.223Z,4.07
2017-06-27T08:50:05.666Z,3.90
2017-06-27T08:52:33.052Z,3.33
2017-06-27T08:55:00.436Z,3.53
2017-06-27T08:57:27.817Z,3.53
2017-06-27T08:59:55.254Z,3.20
2017-06-27T09:02:22.624Z,3.67
2017-06-27T09:04:50.008Z,3.67
2017-06-27T09:07:17.416Z,3.40
2017-06-27T09:09:44.816Z,3.30
2017-06-27T09:12:12.194Z,2.97
2017-06-27T09:14:39.597Z,3.10
2017-06-27T09:17:06.980Z,3.20
2017-06-27T09:19:34.362Z,2.93
2017-06-27T09:22:01.772Z,2.90
2017-06-27T09:24:29.151Z,3.50
2017-06-27T09:26:56.548Z,3.03
2017-06-27T09:29:23.945Z,3.53
2017-06-27T09:31:51.349Z,2.80
2017-06-27T09:34:18.840Z,3.03
2017-06-27T09:36:46.228Z,3.23
2017-06-27T09:39:13.603Z,4.20
2017-06-27T09:41:40.991Z,3.40
2017-06-27T09:44:08.380Z,4.00
2017-06-27T09:46:35.790Z,3.53
2017-06-27T09:49:03.185Z,3.40
2017-06-27T09:51:30.706Z,3.47
2017-06-27T09:53:58.095Z,3.00
2017-06-27T09:56:25.544Z,4.00
2017-06-27T09:58:52.953Z,3.53
2017-06-27T10:01:20.351Z,3.10
2017-06-27T10:03:47.732Z,3.63
2017-06-27T10:06:15.149Z,3.70
2017-06-27T10:08:42.561Z,3.37
2017-06-27T10:11:09.985Z,4.00
2017-06-27T10:13:37.393Z,3.50
2017-06-27T10:16:04.780Z,3.67
2017-06-27T10:18:32.171Z,3.20
2017-06-27T10:20:59.597Z,3.60
2017-06-27T10:23:26.972Z,3.20
2017-06-27T10:25:54.386Z,3.80
2017-06-27T10:28:21.785Z,3.17
2017-06-27T10:30:49.244Z,3.70
2017-06-27T10:33:16.670Z,3.40
2017-06-27T10:35:44.053Z,3.20
2017-06-27T10:38:11.442Z,3.80
2017-06-27T10:40:38.832Z,3.20
2017-06-27T10:43:06.245Z,3.10
2017-06-27T10:45:33.624Z,3.10
2017-06-27T10:48:01.016Z,2.73
2017-06-27T10:50:28.432Z,2.80
2017-06-27T10:52:55.943Z,3.07
2017-06-27T10:55:23.372Z,2.60
2017-06-27T10:57:50.764Z,3.03
2017-06-27T11:00:18.199Z,2.40
2017-06-27T11:02:45.604Z,2.40
2017-06-27T11:05:13.130Z,2.80
2017-06-27T11:07:40.511Z,2.70
2017-06-27T11:10:07.966Z,3.20
2017-06-27T11:12:35.368Z,2.53
2017-06-27T11:15:02.830Z,2.87
2017-06-27T11:17:30.237Z,3.27
2017-06-27T11:19:57.646Z,3.00
2017-06-27T11:22:25.033Z,2.90
2017-06-27T11:24:52.421Z,2.10
2017-06-27T11:27:19.847Z,2.97
2017-06-27T11:29:47.253Z,2.73
2017-06-27T11:32:14.642Z,3.67
2017-06-27T11:34:42.020Z,3.17
2017-06-27T11:37:09.407Z,3.17
2017-06-27T11:39:36.804Z,2.70
2017-06-27T11:42:04.252Z,3.00
2017-06-27T11:44:31.662Z,3.30
2017-06-27T11:46:59.073Z,2.83
2017-06-27T11:49:26.454Z,2.63
2017-06-27T11:51:53.860Z,2.53
2017-06-27T11:54:21.354Z,3.13
2017-06-27T11:56:48.742Z,2.60
2017-06-27T11:59:16.140Z,2.53
2017-06-27T12:01:49.497Z,2.90
2017-06-27T12:04:22.764Z,3.00
2017-06-27T12:06:55.194Z,2.70
2017-06-27T12:09:28.463Z,3.03
2017-06-27T12:11:55.857Z,3.03
2017-06-27T12:14:23.244Z,2.50
2017-06-27T12:16:50.656Z,3.37
2017-06-27T12:19:18.056Z,3.00
2017-06-27T12:21:45.448Z,2.93
2017-06-27T12:24:12.844Z,3.07
2017-06-27T12:26:40.306Z,2.47
2017-06-27T12:29:07.730Z,2.83
2017-06-27T12:31:35.100Z,2.90
2017-06-27T12:34:02.493Z,2.90
2017-06-27T12:36:29.894Z,2.83
2017-06-27T12:38:57.300Z,2.23
2017-06-27T12:41:24.702Z,2.40
2017-06-27T12:43:52.185Z,2.73
2017-06-27T12:46:19.623Z,2.80
2017-06-27T12:48:47.033Z,2.77
2017-06-27T12:51:14.437Z,2.57
2017-06-27T12:53:41.829Z,2.40
2017-06-27T12:56:09.242Z,2.23
2017-06-27T12:58:36.632Z,2.83
2017-06-27T13:01:04.037Z,2.60
2017-06-27T13:03:31.432Z,3.07
2017-06-27T13:05:58.821Z,2.40
2017-06-27T13:08:26.214Z,2.70
2017-06-27T13:10:53.637Z,2.30
2017-06-27T13:13:21.030Z,2.43
2017-06-27T13:15:48.432Z,2.53
2017-06-27T13:18:15.838Z,2.60
2017-06-27T13:20:43.230Z,2.60
2017-06-27T13:23:10.650Z,2.40
2017-06-27T13:25:38.049Z,2.10
2017-06-27T13:28:05.439Z,2.70
2017-06-27T13:30:32.846Z,2.23
2017-06-27T13:33:00.259Z,2.33
2017-06-27T13:35:27.664Z,2.40
2017-06-27T13:37:55.052Z,2.60
2017-06-27T13:40:22.527Z,2.40
2017-06-27T13:42:49.908Z,2.30
2017-06-27T13:45:17.347Z,2.30
2017-06-27T13:47:44.739Z,2.10
2017-06-27T13:50:12.252Z,2.37
2017-06-27T13:52:39.657Z,2.23
2017-06-27T13:55:07.123Z,2.17
2017-06-27T13:57:34.527Z,2.23
2017-06-27T14:00:01.928Z,2.67
2017-06-27T14:02:29.352Z,2.20
2017-06-27T14:04:56.778Z,2.10
2017-06-27T14:07:24.169Z,2.20
2017-06-27T14:09:51.567Z,2.70
2017-06-27T14:12:18.960Z,2.77
2017-06-27T14:14:46.379Z,2.70
2017-06-27T14:17:13.776Z,2.50
2017-06-27T14:19:41.163Z,2.30
2017-06-27T14:22:08.549Z,2.63
2017-06-27T14:24:35.941Z,2.30
2017-06-27T14:27:03.348Z,2.60
2017-06-27T14:29:30.737Z,2.43
2017-06-27T14:31:58.152Z,2.47
2017-06-27T14:34:25.552Z,2.67
2017-06-27T14:36:52.923Z,2.70
2017-06-27T14:39:20.322Z,2.73
2017-06-27T14:41:47.713Z,2.30
2017-06-27T14:44:15.851Z,2.83
2017-06-27T14:46:43.502Z,3.10
2017-06-27T14:49:11.627Z,2.90
2017-06-27T14:51:39.977Z,39.08
2017-06-27T14:54:07.628Z,10.17
2017-06-27T14:56:35.066Z,2.92
2017-06-27T14:59:03.179Z,12.43
2017-06-27T15:04:18.610Z,2.93
2017-06-27T15:13:57.421Z,2.93
2017-06-27T15:16:26.894Z,3.17
2017-06-27T15:18:56.359Z,3.47
2017-06-27T15:21:25.810Z,4.30
2017-06-27T15:23:55.384Z,4.87
2017-06-27T15:26:24.825Z,4.17
2017-06-27T15:28:54.496Z,3.27
2017-06-27T15:31:23.973Z,3.10
2017-06-27T15:33:54.002Z,3.20
2017-06-27T15:36:23.731Z,2.93
2017-06-27T15:38:53.536Z,3.17
2017-06-27T15:41:23.386Z,3.60
2017-06-27T15:43:52.825Z,3.73
2017-06-27T15:46:22.419Z,5.00
2017-06-27T15:48:51.865Z,3.90
2017-06-27T15:51:21.323Z,4.37
2017-06-27T15:53:50.786Z,3.97
2017-06-27T15:56:20.343Z,6.10
2017-06-27T15:58:49.805Z,3.67
2017-06-27T16:01:19.277Z,3.40
2017-06-27T16:03:48.744Z,3.90
2017-06-27T16:06:18.196Z,4.33
2017-06-27T16:08:48.507Z,4.07
2017-06-27T16:11:17.965Z,3.60
2017-06-27T16:13:47.412Z,3.90
2017-06-27T16:16:16.877Z,4.17
2017-06-27T16:18:46.354Z,4.00
2017-06-27T16:21:15.789Z,3.33
2017-06-27T16:23:45.252Z,4.20
2017-06-27T16:26:14.703Z,3.83
2017-06-27T16:28:44.190Z,3.73
2017-06-27T16:31:13.650Z,3.67
2017-06-27T16:33:43.131Z,3.60
2017-06-27T16:36:12.623Z,3.67
2017-06-27T16:38:42.131Z,3.20
2017-06-27T16:41:11.587Z,3.20
2017-06-27T16:43:41.025Z,2.80
2017-06-27T16:46:10.477Z,2.93
2017-06-27T16:48:39.929Z,2.97
2017-06-27T16:51:09.387Z,2.30
2017-06-27T16:53:38.835Z,2.50
2017-06-27T16:56:08.281Z,2.20
2017-06-27T16:58:38.657Z,2.70
2017-06-27T17:01:08.109Z,2.53
2017-06-27T17:03:37.213Z,2.27
2017-06-27T17:06:06.733Z,2.70
2017-06-27T17:08:36.170Z,2.47
2017-06-27T17:11:05.641Z,2.33
2017-06-27T17:13:35.095Z,2.50
2017-06-27T17:16:04.541Z,2.50
2017-06-27T17:18:34.018Z,2.30
2017-06-27T17:21:03.488Z,2.10
2017-06-27T17:23:32.976Z,2.60
2017-06-27T17:26:02.422Z,2.80
2017-06-27T17:28:31.873Z,3.00
2017-06-27T17:31:01.150Z,3.30
2017-06-27T17:33:30.625Z,2.27
2017-06-27T17:36:00.257Z,3.03
2017-06-27T17:38:29.713Z,2.57
2017-06-27T17:40:59.188Z,3.60
2017-06-27T17:43:28.649Z,2.83
2017-06-27T17:45:58.252Z,2.90
2017-06-27T17:48:28.633Z,3.07
2017-06-27T17:50:58.097Z,3.63
2017-06-27T17:53:27.554Z,4.60
2017-06-27T17:55:57.016Z,6.13
2017-06-27T17:58:26.453Z,6.63
2017-06-27T18:00:55.901Z,5.53
2017-06-27T18:03:25.385Z,5.10
2017-06-27T18:05:54.981Z,4.47
2017-06-27T18:08:24.424Z,4.80
2017-06-27T18:10:53.893Z,4.70
2017-06-27T18:13:23.396Z,5.20
2017-06-27T18:15:52.846Z,5.17
2017-06-27T18:18:22.349Z,5.30
2017-06-27T18:20:51.792Z,4.50
2017-06-27T18:23:21.241Z,5.37
2017-06-27T18:25:50.800Z,5.30
2017-06-27T18:28:20.267Z,5.33
2017-06-27T18:30:49.837Z,6.30
2017-06-27T18:33:19.273Z,4.67
2017-06-27T18:35:48.726Z,4.40
2017-06-27T18:38:18.177Z,5.23
2017-06-27T18:40:47.629Z,5.10
2017-06-27T18:43:17.086Z,4.50
2017-06-27T18:45:46.533Z,5.50
2017-06-27T18:48:15.832Z,5.47
2017-06-27T18:50:45.277Z,4.97
2017-06-27T18:53:14.795Z,6.10
2017-06-27T18:55:44.252Z,6.60
2017-06-27T18:58:13.700Z,8.77
2017-06-27T19:00:43.156Z,8.90
2017-06-27T19:03:12.620Z,8.30
2017-06-27T19:05:42.087Z,9.00
2017-06-27T19:08:11.540Z,11.00
2017-06-27T19:10:41.004Z,7.20
2017-06-27T19:13:10.457Z,9.17
2017-06-27T19:15:39.932Z,9.47
2017-06-27T19:18:09.578Z,10.47
2017-06-27T19:20:39.016Z,10.13
2017-06-27T19:23:08.466Z,9.43
2017-06-27T19:25:37.764Z,11.00
2017-06-27T19:28:07.267Z,14.20
2017-06-27T19:30:36.725Z,13.20
2017-06-27T19:33:06.206Z,11.93
2017-06-27T19:35:35.664Z,11.83
2017-06-27T19:38:05.197Z,13.30
2017-06-27T19:40:34.696Z,11.33
2017-06-27T19:43:04.213Z,11.50
2017-06-27T19:45:33.666Z,11.33
2017-06-27T19:48:03.193Z,14.43
2017-06-27T19:50:32.662Z,15.00
2017-06-27T19:53:02.137Z,13.83
2017-06-27T19:55:31.645Z,12.40
2017-06-27T19:58:01.177Z,14.27
2017-06-27T20:00:30.689Z,14.60
2017-06-27T20:03:00.412Z,13.63
2017-06-27T20:05:29.854Z,14.27
2017-06-27T20:07:59.357Z,12.50
2017-06-27T20:10:28.825Z,14.30
2017-06-27T20:12:58.302Z,12.10
2017-06-27T20:15:27.775Z,13.83
2017-06-27T20:17:57.233Z,12.37
2017-06-27T20:20:26.702Z,17.60
2017-06-27T20:22:56.244Z,12.13
2017-06-27T20:25:25.694Z,11.17
2017-06-27T20:27:55.254Z,13.17
2017-06-27T20:30:24.719Z,11.90
2017-06-27T20:32:54.201Z,11.83
2017-06-27T20:35:23.704Z,10.97
2017-06-27T20:37:53.229Z,10.93
2017-06-27T20:40:22.743Z,10.80
2017-06-27T20:45:30.984Z,10.73
2017-06-27T20:48:00.447Z,11.57
2017-06-27T20:50:30.021Z,11.70
2017-06-27T20:53:00.263Z,11.43
2017-06-27T20:55:29.718Z,11.00
2017-06-27T20:57:59.258Z,11.73
2017-06-27T21:00:28.715Z,11.50
2017-06-27T21:02:58.190Z,13.03
2017-06-27T21:05:27.696Z,14.70
2017-06-27T21:07:57.146Z,12.27
2017-06-27T21:10:26.655Z,11.50
2017-06-27T21:12:56.188Z,11.50
2017-06-27T21:15:25.627Z,11.40
2017-06-27T21:17:55.099Z,12.40
2017-06-27T21:20:24.594Z,13.37
2017-06-27T21:22:54.048Z,12.20
2017-06-27T21:25:23.554Z,11.20
2017-06-27T21:27:53.034Z,10.87
2017-06-27T21:30:22.557Z,9.33
2017-06-27T21:32:52.018Z,9.60
2017-06-27T21:35:21.527Z,10.73
2017-06-27T21:37:51.070Z,11.37
2017-06-27T21:40:20.562Z,8.60
2017-06-27T21:42:50.034Z,7.47
2017-06-27T21:45:19.532Z,7.67
2017-06-27T21:47:48.995Z,7.37
2017-06-27T21:50:18.500Z,8.00
2017-06-27T21:52:47.950Z,9.23
2017-06-27T21:55:17.441Z,10.67
2017-06-27T21:57:46.902Z,10.80
2017-06-27T22:00:16.416Z,10.00
2017-06-27T22:02:45.705Z,10.60
2017-06-27T22:05:15.198Z,9.27
2017-06-27T22:07:44.648Z,9.20
2017-06-27T22:10:14.157Z,8.63
2017-06-27T22:12:43.653Z,8.93
2017-06-27T22:15:13.146Z,7.77
2017-06-27T22:17:42.598Z,7.90
2017-06-27T22:20:12.098Z,7.40
2017-06-27T22:22:41.374Z,7.50
2017-06-27T22:25:10.921Z,8.83
2017-06-27T22:27:40.359Z,8.20
2017-06-27T22:30:09.865Z,8.67
2017-06-27T22:32:39.312Z,8.67
2017-06-27T22:35:08.949Z,10.17
2017-06-27T22:37:38.393Z,9.83
2017-06-27T22:40:07.922Z,9.23
2017-06-27T22:42:37.395Z,7.70
2017-06-27T22:45:06.904Z,8.30
2017-06-27T22:47:36.379Z,7.83
2017-06-27T22:50:05.868Z,7.50
2017-06-27T22:52:35.334Z,7.57
2017-06-27T22:55:04.851Z,7.57
2017-06-27T22:57:34.318Z,8.03
2017-06-27T23:00:03.789Z,8.30
2017-06-27T23:02:33.069Z,6.93
2017-06-27T23:05:02.583Z,6.57
2017-06-27T23:07:32.035Z,7.10
2017-06-27T23:10:01.670Z,7.33
2017-06-27T23:12:31.121Z,6.93
2017-06-27T23:15:00.585Z,9.37
2017-06-27T23:17:30.052Z,19.73
2017-06-27T23:20:00.193Z,8.20
2017-06-27T23:22:29.365Z,6.53
2017-06-27T23:24:58.792Z,5.47
2017-06-27T23:27:28.353Z,5.77
2017-06-27T23:29:57.782Z,5.47
2017-06-27T23:32:27.223Z,6.00
2017-06-27T23:34:56.738Z,5.30
2017-06-27T23:37:26.176Z,5.50
2017-06-27T23:39:55.625Z,5.57
2017-06-27T23:42:25.074Z,5.50
2017-06-27T23:44:54.534Z,6.03
2017-06-27T23:47:24.081Z,5.67
2017-06-27T23:49:53.648Z,5.63
2017-06-27T23:52:23.128Z,5.30
2017-06-27T23:54:52.585Z,5.70
2017-06-27T23:57:22.071Z,4.87
2017-06-27T23:59:51.518Z,5.10
